createdAt,value
2023-12-10T00:02:45.348Z,35.50
2023-12-10T00:07:48.040Z,36.23
2023-12-10T00:12:50.596Z,29.13
2023-12-10T00:17:53.235Z,30.17
2023-12-10T00:22:56.207Z,22.97
2023-12-10T00:27:59.488Z,18.43
2023-12-10T00:33:01.899Z,32.60
2023-12-10T00:38:04.569Z,30.37
2023-12-10T00:43:07.106Z,30.17
2023-12-10T00:48:10.184Z,32.80
2023-12-10T00:53:13.114Z,37.97
2023-12-10T00:58:15.955Z,29.47
2023-12-10T01:03:18.550Z,33.83
2023-12-10T01:08:21.295Z,38.40
2023-12-10T01:13:25.516Z,24.83
2023-12-10T01:18:28.185Z,28.57
2023-12-10T01:23:30.877Z,20.67
2023-12-10T01:28:34.393Z,26.43
2023-12-10T01:33:37.243Z,29.33
2023-12-10T01:38:39.887Z,33.80
2023-12-10T01:43:44.024Z,37.43
2023-12-10T01:48:48.065Z,26.20
2023-12-10T01:53:50.996Z,24.13
2023-12-10T01:58:53.448Z,29.33
2023-12-10T02:03:57.118Z,27.53
2023-12-10T02:08:59.681Z,34.87
2023-12-10T02:14:02.203Z,53.53
2023-12-10T02:19:04.950Z,39.73
2023-12-10T02:24:11.541Z,28.50
2023-12-10T02:29:14.086Z,29.50
2023-12-10T02:34:17.186Z,25.33
2023-12-10T02:39:20.875Z,32.80
2023-12-10T02:44:23.418Z,30.70
2023-12-10T02:49:26.058Z,21.67
2023-12-10T02:54:28.788Z,23.80
2023-12-10T02:59:31.353Z,29.30
2023-12-10T03:04:33.960Z,24.23
2023-12-10T03:09:36.531Z,20.93
2023-12-10T03:14:39.298Z,18.93
2023-12-10T03:19:41.952Z,17.70
2023-12-10T03:24:44.936Z,26.83
2023-12-10T03:29:47.583Z,18.43
2023-12-10T03:34:50.155Z,22.03
2023-12-10T03:39:52.943Z,18.60
2023-12-10T03:44:57.235Z,16.50
2023-12-10T03:49:59.786Z,24.70
2023-12-10T03:55:02.353Z,23.43
2023-12-10T04:00:08.166Z,25.93
2023-12-10T04:05:16.538Z,22.73
2023-12-10T04:10:19.681Z,27.73
2023-12-10T04:15:22.591Z,14.97
2023-12-10T04:20:25.100Z,29.57
2023-12-10T04:25:28.154Z,25.23
2023-12-10T04:30:30.762Z,19.43
2023-12-10T04:35:33.297Z,25.73
2023-12-10T04:40:35.839Z,17.50
2023-12-10T04:45:38.394Z,24.40
2023-12-10T04:50:41.789Z,26.23
2023-12-10T04:55:44.738Z,29.90
2023-12-10T05:00:47.257Z,24.23
2023-12-10T05:05:49.898Z,27.27
2023-12-10T05:10:52.426Z,18.50
2023-12-10T05:15:57.225Z,20.53
2023-12-10T05:20:59.717Z,18.03
2023-12-10T05:26:02.266Z,16.03
2023-12-10T05:31:05.002Z,21.70
2023-12-10T05:36:08.291Z,30.20
2023-12-10T05:41:11.314Z,18.60
2023-12-10T05:46:13.833Z,24.63
2023-12-10T05:51:16.852Z,14.57
2023-12-10T05:56:19.551Z,27.00
2023-12-10T06:01:22.280Z,21.37
2023-12-10T06:06:25.597Z,20.83
2023-12-10T06:11:28.146Z,23.97
2023-12-10T06:16:30.820Z,23.67
2023-12-10T06:21:35.077Z,27.80
2023-12-10T06:26:37.792Z,21.60
2023-12-10T06:31:40.271Z,27.80
2023-12-10T06:36:42.841Z,22.47
2023-12-10T06:41:45.477Z,22.23
2023-12-10T06:46:52.131Z,28.47
2023-12-10T06:51:54.681Z,28.03
2023-12-10T06:56:57.248Z,35.93
2023-12-10T07:01:59.891Z,31.37
2023-12-10T07:07:02.623Z,28.23
2023-12-10T07:12:05.449Z,34.33
2023-12-10T07:17:08.238Z,33.40
2023-12-10T07:22:12.707Z,30.77
2023-12-10T07:27:16.748Z,34.37
2023-12-10T07:32:19.302Z,23.67
2023-12-10T07:37:21.753Z,28.50
2023-12-10T07:42:24.324Z,22.30
2023-12-10T07:47:26.817Z,29.73
2023-12-10T07:52:29.598Z,15.77
2023-12-10T07:57:32.366Z,18.90
2023-12-10T08:02:34.894Z,17.40
2023-12-10T08:07:37.433Z,14.33
2023-12-10T08:12:40.087Z,10.27
2023-12-10T08:17:43.081Z,22.53
2023-12-10T08:22:45.629Z,27.87
2023-12-10T08:27:48.376Z,37.00
2023-12-10T08:32:51.051Z,29.37
2023-12-10T08:37:54.201Z,28.67
2023-12-10T08:42:56.700Z,29.80
2023-12-10T08:47:59.281Z,28.63
2023-12-10T08:53:01.884Z,32.00
2023-12-10T08:58:04.280Z,24.83
2023-12-10T09:03:06.848Z,28.67
2023-12-10T09:08:09.507Z,28.47
2023-12-10T09:13:12.138Z,23.17
2023-12-10T09:18:14.916Z,23.40
2023-12-10T09:23:17.469Z,24.33
2023-12-10T09:28:19.992Z,26.70
2023-12-10T09:33:22.729Z,19.97
2023-12-10T09:38:25.257Z,27.87
2023-12-10T09:43:27.689Z,27.20
2023-12-10T09:48:32.273Z,21.30
2023-12-10T09:53:34.824Z,17.07
2023-12-10T09:58:37.509Z,12.60
2023-12-10T10:03:41.569Z,17.43
2023-12-10T10:08:44.106Z,24.40
2023-12-10T10:13:54.288Z,26.37
2023-12-10T10:18:56.961Z,21.03
2023-12-10T10:23:59.564Z,22.37
2023-12-10T10:29:07.086Z,18.20
2023-12-10T10:34:09.951Z,21.23
2023-12-10T10:39:12.549Z,26.00
2023-12-10T10:44:15.098Z,36.37
2023-12-10T10:49:17.937Z,22.90
2023-12-10T10:54:21.065Z,20.97
2023-12-10T10:59:34.020Z,13.57
2023-12-10T11:04:40.116Z,25.50
2023-12-10T11:09:57.331Z,19.87
2023-12-10T11:15:00.213Z,26.47
2023-12-10T11:20:03.483Z,24.80
2023-12-10T11:25:06.329Z,29.13
2023-12-10T11:30:09.405Z,15.70
2023-12-10T11:35:15.030Z,21.67
2023-12-10T11:40:17.965Z,20.13
2023-12-10T11:45:20.499Z,23.40
2023-12-10T11:50:23.234Z,22.43
2023-12-10T11:55:25.903Z,22.60
2023-12-10T12:00:28.471Z,24.17
2023-12-10T12:05:31.257Z,27.30
2023-12-10T12:10:38.286Z,26.57
2023-12-10T12:15:48.725Z,27.47
2023-12-10T12:20:51.543Z,34.23
2023-12-10T12:25:54.156Z,30.63
2023-12-10T12:30:58.304Z,28.53
2023-12-10T12:36:01.089Z,26.50
2023-12-10T12:41:04.358Z,26.57
2023-12-10T12:46:07.141Z,29.43
2023-12-10T12:51:09.680Z,30.90
2023-12-10T12:56:12.271Z,34.50
2023-12-10T13:01:14.791Z,33.93
2023-12-10T13:06:20.374Z,35.47
2023-12-10T13:11:23.172Z,36.53
2023-12-10T13:16:25.687Z,36.10
2023-12-10T13:21:28.376Z,34.83
2023-12-10T13:26:30.839Z,43.40
2023-12-10T13:31:33.374Z,35.60
2023-12-10T13:36:36.372Z,44.57
2023-12-10T13:41:39.056Z,41.37
2023-12-10T13:46:41.562Z,34.87
2023-12-10T13:51:44.095Z,30.20
2023-12-10T13:56:49.428Z,30.27
2023-12-10T14:01:53.756Z,41.90
2023-12-10T14:06:56.372Z,28.83
2023-12-10T14:11:58.891Z,33.07
2023-12-10T14:17:01.446Z,34.63
2023-12-10T14:22:04.420Z,36.33
2023-12-10T14:27:07.286Z,40.70
2023-12-10T14:32:09.854Z,38.23
2023-12-10T14:37:12.461Z,34.27
2023-12-10T14:42:15.250Z,95.77
2023-12-10T14:47:17.859Z,41.97
2023-12-10T14:52:24.228Z,40.37
2023-12-10T14:57:27.074Z,34.40
2023-12-10T15:02:29.862Z,35.93
2023-12-10T15:07:32.464Z,37.27
2023-12-10T15:12:35.044Z,37.90
2023-12-10T15:17:39.014Z,40.13
2023-12-10T15:22:41.600Z,39.73
2023-12-10T15:27:44.168Z,44.57
2023-12-10T15:32:47.912Z,48.10
2023-12-10T15:37:50.501Z,48.83
2023-12-10T15:42:53.125Z,55.03
2023-12-10T15:47:55.625Z,71.43
2023-12-10T15:52:58.127Z,59.57
2023-12-10T15:58:00.641Z,64.77
2023-12-10T16:03:03.241Z,33.43
2023-12-10T16:08:05.820Z,41.97
2023-12-10T16:13:09.184Z,31.83
2023-12-10T16:18:11.881Z,37.80
2023-12-10T16:23:14.436Z,32.17
2023-12-10T16:28:17.070Z,35.00
2023-12-10T16:33:22.204Z,40.70
2023-12-10T16:38:24.775Z,37.90
2023-12-10T16:43:27.245Z,39.63
2023-12-10T16:48:29.894Z,39.27
2023-12-10T16:53:32.717Z,41.27
2023-12-10T16:58:35.209Z,44.93
2023-12-10T17:03:37.753Z,30.17
2023-12-10T17:08:40.782Z,26.30
2023-12-10T17:13:43.372Z,32.07
2023-12-10T17:18:45.958Z,27.03
2023-12-10T17:23:49.269Z,30.93
2023-12-10T17:28:51.857Z,36.17
2023-12-10T17:33:54.717Z,30.07
2023-12-10T17:38:57.295Z,29.77
2023-12-10T17:43:59.904Z,27.17
2023-12-10T17:49:02.532Z,24.90
2023-12-10T17:54:05.120Z,32.10
2023-12-10T17:59:07.722Z,33.50
2023-12-10T18:04:10.322Z,28.47
2023-12-10T18:09:12.921Z,29.77
2023-12-10T18:14:15.806Z,26.23
2023-12-10T18:19:18.601Z,25.37
2023-12-10T18:24:21.281Z,47.10
2023-12-10T18:29:23.784Z,34.63
2023-12-10T18:34:26.614Z,27.43
2023-12-10T18:39:29.440Z,28.40
2023-12-10T18:44:33.954Z,27.47
2023-12-10T18:49:36.725Z,31.23
2023-12-10T18:54:39.944Z,32.77
2023-12-10T18:59:42.425Z,23.17
2023-12-10T19:04:45.334Z,34.17
2023-12-10T19:09:49.105Z,33.10
2023-12-10T19:14:52.355Z,38.03
2023-12-10T19:19:55.369Z,25.17
2023-12-10T19:24:58.362Z,29.00
2023-12-10T19:30:01.236Z,33.43
2023-12-10T19:35:04.951Z,24.43
2023-12-10T19:40:07.805Z,25.40
2023-12-10T19:45:10.874Z,28.17
2023-12-10T19:50:13.383Z,36.27
2023-12-10T19:55:16.438Z,39.67
2023-12-10T20:00:20.183Z,38.97
2023-12-10T20:05:22.772Z,32.30
2023-12-10T20:10:25.370Z,40.20
2023-12-10T20:15:28.037Z,44.30
2023-12-10T20:20:30.657Z,32.93
2023-12-10T20:25:34.772Z,36.23
2023-12-10T20:30:37.331Z,37.17
2023-12-10T20:35:40.730Z,25.30
2023-12-10T20:40:46.634Z,28.63
2023-12-10T20:45:51.443Z,29.23
2023-12-10T20:50:53.968Z,33.13
2023-12-10T20:56:00.335Z,27.53
2023-12-10T21:01:02.886Z,29.20
2023-12-10T21:06:05.698Z,33.83
2023-12-10T21:11:08.370Z,19.30
2023-12-10T21:16:14.885Z,35.07
2023-12-10T21:21:17.472Z,30.30
2023-12-10T21:26:19.897Z,28.87
2023-12-10T21:31:24.671Z,25.73
2023-12-10T21:36:28.117Z,26.07
2023-12-10T21:41:30.786Z,28.97
2023-12-10T21:46:36.567Z,23.33
2023-12-10T21:51:39.991Z,27.23
2023-12-10T21:56:42.567Z,25.77
2023-12-10T22:01:45.231Z,22.50
2023-12-10T22:06:47.808Z,26.27
2023-12-10T22:11:50.288Z,28.00
2023-12-10T22:16:52.898Z,24.33
2023-12-10T22:21:55.466Z,26.83
2023-12-10T22:26:58.035Z,20.80
2023-12-10T22:32:00.759Z,23.20
2023-12-10T22:37:03.269Z,26.30
2023-12-10T22:42:06.560Z,34.03
2023-12-10T22:47:09.123Z,13.60
2023-12-10T22:52:11.691Z,19.40
2023-12-10T22:57:14.264Z,16.80
2023-12-10T23:02:16.778Z,22.20
2023-12-10T23:07:19.224Z,22.13
2023-12-10T23:12:21.674Z,19.87
2023-12-10T23:17:24.276Z,20.67
2023-12-10T23:22:26.890Z,21.23
2023-12-10T23:27:29.789Z,17.30
2023-12-10T23:32:32.575Z,19.67
2023-12-10T23:37:35.014Z,20.73
2023-12-10T23:42:37.522Z,26.17
2023-12-10T23:47:40.044Z,18.40
2023-12-10T23:52:42.505Z,13.07
2023-12-10T23:57:45.068Z,11.07
